sensor_id;sensor_type;location;lat;lon;timestamp;P1;durP1;ratioP1;P2;durP2;ratioP2
16906;SDS011;8570;52.380;4.654;2022-11-11T00:05:00;12.00;;;4.30;;
16906;SDS011;8570;52.380;4.654;2022-11-11T00:10:02;16.00;;;4.28;;
16906;SDS011;8570;52.380;4.654;2022-11-11T00:15:06;11.18;;;4.55;;
16906;SDS011;8570;52.380;4.654;2022-11-11T00:20:09;7.03;;;4.15;;
16906;SDS011;8570;52.380;4.654;2022-11-11T00:25:28;8.68;;;3.92;;
16906;SDS011;8570;52.380;4.654;2022-11-11T00:30:31;14.52;;;4.43;;
16906;SDS011;8570;52.380;4.654;2022-11-11T00:35:33;6.78;;;3.70;;
16906;SDS011;8570;52.380;4.654;2022-11-11T00:40:53;10.98;;;4.57;;
16906;SDS011;8570;52.380;4.654;2022-11-11T00:45:56;13.73;;;4.90;;
16906;SDS011;8570;52.380;4.654;2022-11-11T00:51:12;9.30;;;4.90;;
16906;SDS011;8570;52.380;4.654;2022-11-11T00:56:14;13.00;;;6.07;;
16906;SDS011;8570;52.380;4.654;2022-11-11T01:01:17;13.65;;;6.45;;
16906;SDS011;8570;52.380;4.654;2022-11-11T01:06:19;12.57;;;6.82;;
16906;SDS011;8570;52.380;4.654;2022-11-11T01:11:22;16.42;;;7.57;;
16906;SDS011;8570;52.380;4.654;2022-11-11T01:16:26;15.02;;;7.47;;
16906;SDS011;8570;52.380;4.654;2022-11-11T01:21:28;14.13;;;8.35;;
16906;SDS011;8570;52.380;4.654;2022-11-11T01:26:30;18.65;;;8.85;;
16906;SDS011;8570;52.380;4.654;2022-11-11T01:31:33;14.40;;;9.43;;
16906;SDS011;8570;52.380;4.654;2022-11-11T01:36:35;17.10;;;10.55;;
16906;SDS011;8570;52.380;4.654;2022-11-11T01:41:37;17.20;;;11.35;;
16906;SDS011;8570;52.380;4.654;2022-11-11T01:46:41;24.02;;;12.20;;
16906;SDS011;8570;52.380;4.654;2022-11-11T01:51:45;17.42;;;11.30;;
16906;SDS011;8570;52.380;4.654;2022-11-11T01:56:55;22.10;;;12.25;;
16906;SDS011;8570;52.380;4.654;2022-11-11T02:02:04;22.65;;;12.00;;
16906;SDS011;8570;52.380;4.654;2022-11-11T02:07:12;17.65;;;12.00;;
16906;SDS011;8570;52.380;4.654;2022-11-11T02:12:14;21.90;;;13.07;;
16906;SDS011;8570;52.380;4.654;2022-11-11T02:17:35;21.55;;;14.38;;
16906;SDS011;8570;52.380;4.654;2022-11-11T02:22:40;23.38;;;13.98;;
16906;SDS011;8570;52.380;4.654;2022-11-11T02:27:49;22.70;;;14.80;;
16906;SDS011;8570;52.380;4.654;2022-11-11T02:32:53;20.38;;;14.63;;
16906;SDS011;8570;52.380;4.654;2022-11-11T02:37:55;22.50;;;14.45;;
16906;SDS011;8570;52.380;4.654;2022-11-11T02:42:58;25.30;;;15.30;;
16906;SDS011;8570;52.380;4.654;2022-11-11T02:48:00;22.25;;;15.70;;
16906;SDS011;8570;52.380;4.654;2022-11-11T02:53:02;26.38;;;15.50;;
16906;SDS011;8570;52.380;4.654;2022-11-11T02:58:05;24.80;;;15.95;;
16906;SDS011;8570;52.380;4.654;2022-11-11T03:03:07;24.02;;;15.88;;
16906;SDS011;8570;52.380;4.654;2022-11-11T03:08:09;28.88;;;17.35;;
16906;SDS011;8570;52.380;4.654;2022-11-11T03:13:12;26.73;;;17.77;;
16906;SDS011;8570;52.380;4.654;2022-11-11T03:18:14;27.77;;;17.23;;
16906;SDS011;8570;52.380;4.654;2022-11-11T03:23:16;30.38;;;18.15;;
16906;SDS011;8570;52.380;4.654;2022-11-11T03:28:20;27.80;;;18.25;;
16906;SDS011;8570;52.380;4.654;2022-11-11T03:33:24;28.73;;;17.25;;
16906;SDS011;8570;52.380;4.654;2022-11-11T03:38:25;32.38;;;17.95;;
16906;SDS011;8570;52.380;4.654;2022-11-11T03:43:30;27.70;;;17.40;;
16906;SDS011;8570;52.380;4.654;2022-11-11T03:48:34;26.60;;;17.20;;
16906;SDS011;8570;52.380;4.654;2022-11-11T03:53:36;25.77;;;17.48;;
16906;SDS011;8570;52.380;4.654;2022-11-11T03:58:39;26.42;;;17.83;;
16906;SDS011;8570;52.380;4.654;2022-11-11T04:03:41;29.05;;;19.02;;
16906;SDS011;8570;52.380;4.654;2022-11-11T04:09:00;24.88;;;16.73;;
16906;SDS011;8570;52.380;4.654;2022-11-11T04:14:21;29.02;;;17.23;;
16906;SDS011;8570;52.380;4.654;2022-11-11T04:19:40;29.08;;;18.10;;
16906;SDS011;8570;52.380;4.654;2022-11-11T04:25:07;28.05;;;18.63;;
16906;SDS011;8570;52.380;4.654;2022-11-11T04:30:28;30.90;;;18.05;;
16906;SDS011;8570;52.380;4.654;2022-11-11T04:35:30;27.92;;;18.77;;
16906;SDS011;8570;52.380;4.654;2022-11-11T04:40:32;34.25;;;19.67;;
16906;SDS011;8570;52.380;4.654;2022-11-11T04:45:52;30.10;;;20.48;;
16906;SDS011;8570;52.380;4.654;2022-11-11T04:50:58;28.65;;;19.38;;
16906;SDS011;8570;52.380;4.654;2022-11-11T04:55:59;25.73;;;19.10;;
16906;SDS011;8570;52.380;4.654;2022-11-11T05:01:20;29.35;;;19.25;;
16906;SDS011;8570;52.380;4.654;2022-11-11T05:06:36;25.25;;;18.00;;
16906;SDS011;8570;52.380;4.654;2022-11-11T05:11:55;30.02;;;19.08;;
16906;SDS011;8570;52.380;4.654;2022-11-11T05:16:58;31.77;;;19.98;;
16906;SDS011;8570;52.380;4.654;2022-11-11T05:22:18;30.45;;;20.35;;
16906;SDS011;8570;52.380;4.654;2022-11-11T05:27:24;30.83;;;19.40;;
16906;SDS011;8570;52.380;4.654;2022-11-11T05:32:27;26.67;;;20.58;;
16906;SDS011;8570;52.380;4.654;2022-11-11T05:37:29;36.38;;;21.92;;
16906;SDS011;8570;52.380;4.654;2022-11-11T05:42:31;32.43;;;21.97;;
16906;SDS011;8570;52.380;4.654;2022-11-11T05:47:34;29.20;;;20.93;;
16906;SDS011;8570;52.380;4.654;2022-11-11T05:52:36;35.93;;;20.23;;
16906;SDS011;8570;52.380;4.654;2022-11-11T05:57:38;30.08;;;20.90;;
16906;SDS011;8570;52.380;4.654;2022-11-11T06:02:41;29.20;;;20.30;;
16906;SDS011;8570;52.380;4.654;2022-11-11T06:07:43;31.20;;;21.10;;
16906;SDS011;8570;52.380;4.654;2022-11-11T06:12:45;35.00;;;21.07;;
16906;SDS011;8570;52.380;4.654;2022-11-11T06:18:05;36.57;;;22.67;;
16906;SDS011;8570;52.380;4.654;2022-11-11T06:23:07;29.83;;;20.37;;
16906;SDS011;8570;52.380;4.654;2022-11-11T06:28:10;28.67;;;20.63;;
16906;SDS011;8570;52.380;4.654;2022-11-11T06:33:13;32.83;;;20.27;;
16906;SDS011;8570;52.380;4.654;2022-11-11T06:38:16;34.57;;;20.50;;
16906;SDS011;8570;52.380;4.654;2022-11-11T06:43:19;33.10;;;21.77;;
16906;SDS011;8570;52.380;4.654;2022-11-11T06:48:23;34.93;;;22.30;;
16906;SDS011;8570;52.380;4.654;2022-11-11T06:53:26;31.07;;;20.70;;
16906;SDS011;8570;52.380;4.654;2022-11-11T06:58:29;31.53;;;20.77;;
16906;SDS011;8570;52.380;4.654;2022-11-11T07:03:32;33.37;;;21.70;;
16906;SDS011;8570;52.380;4.654;2022-11-11T07:08:35;32.93;;;22.20;;
16906;SDS011;8570;52.380;4.654;2022-11-11T07:13:37;32.03;;;22.97;;
16906;SDS011;8570;52.380;4.654;2022-11-11T07:18:43;30.70;;;22.63;;
16906;SDS011;8570;52.380;4.654;2022-11-11T07:23:45;38.80;;;22.53;;
16906;SDS011;8570;52.380;4.654;2022-11-11T07:28:47;32.20;;;22.63;;
16906;SDS011;8570;52.380;4.654;2022-11-11T07:33:51;34.77;;;22.23;;
16906;SDS011;8570;52.380;4.654;2022-11-11T07:38:53;35.83;;;24.97;;
16906;SDS011;8570;52.380;4.654;2022-11-11T07:43:55;40.07;;;24.77;;
16906;SDS011;8570;52.380;4.654;2022-11-11T07:48:58;36.00;;;23.37;;
16906;SDS011;8570;52.380;4.654;2022-11-11T07:54:00;36.07;;;23.97;;
16906;SDS011;8570;52.380;4.654;2022-11-11T07:59:02;34.00;;;24.57;;
16906;SDS011;8570;52.380;4.654;2022-11-11T08:04:05;36.27;;;26.03;;
16906;SDS011;8570;52.380;4.654;2022-11-11T08:09:07;36.50;;;24.80;;
16906;SDS011;8570;52.380;4.654;2022-11-11T08:14:09;38.20;;;25.23;;
16906;SDS011;8570;52.380;4.654;2022-11-11T08:19:12;35.13;;;22.93;;
16906;SDS011;8570;52.380;4.654;2022-11-11T08:24:14;32.17;;;22.87;;
16906;SDS011;8570;52.380;4.654;2022-11-11T08:29:17;29.83;;;22.40;;
16906;SDS011;8570;52.380;4.654;2022-11-11T08:34:21;31.80;;;22.30;;
16906;SDS011;8570;52.380;4.654;2022-11-11T08:39:23;32.53;;;21.67;;
16906;SDS011;8570;52.380;4.654;2022-11-11T08:44:25;33.10;;;22.80;;
16906;SDS011;8570;52.380;4.654;2022-11-11T08:49:28;34.10;;;23.97;;
16906;SDS011;8570;52.380;4.654;2022-11-11T08:54:30;33.17;;;23.77;;
16906;SDS011;8570;52.380;4.654;2022-11-11T08:59:33;35.77;;;24.63;;
16906;SDS011;8570;52.380;4.654;2022-11-11T09:04:36;32.73;;;23.70;;
16906;SDS011;8570;52.380;4.654;2022-11-11T09:09:39;30.67;;;22.57;;
16906;SDS011;8570;52.380;4.654;2022-11-11T09:14:41;39.10;;;23.63;;
16906;SDS011;8570;52.380;4.654;2022-11-11T09:19:44;30.35;;;21.08;;
16906;SDS011;8570;52.380;4.654;2022-11-11T09:24:45;33.33;;;22.73;;
16906;SDS011;8570;52.380;4.654;2022-11-11T09:29:47;31.90;;;23.80;;
16906;SDS011;8570;52.380;4.654;2022-11-11T09:34:51;33.10;;;22.87;;
16906;SDS011;8570;52.380;4.654;2022-11-11T09:39:54;34.30;;;22.67;;
16906;SDS011;8570;52.380;4.654;2022-11-11T09:45:02;28.00;;;20.80;;
16906;SDS011;8570;52.380;4.654;2022-11-11T09:50:14;31.67;;;22.50;;
16906;SDS011;8570;52.380;4.654;2022-11-11T09:55:19;30.35;;;22.25;;
16906;SDS011;8570;52.380;4.654;2022-11-11T10:00:24;29.77;;;22.37;;
16906;SDS011;8570;52.380;4.654;2022-11-11T10:05:31;29.58;;;22.58;;
16906;SDS011;8570;52.380;4.654;2022-11-11T10:10:41;33.88;;;23.65;;
16906;SDS011;8570;52.380;4.654;2022-11-11T10:15:49;34.08;;;24.50;;
16906;SDS011;8570;52.380;4.654;2022-11-11T10:20:59;36.25;;;23.70;;
16906;SDS011;8570;52.380;4.654;2022-11-11T10:26:06;35.58;;;25.73;;
16906;SDS011;8570;52.380;4.654;2022-11-11T10:31:16;30.90;;;22.70;;
16906;SDS011;8570;52.380;4.654;2022-11-11T10:36:22;37.42;;;24.38;;
16906;SDS011;8570;52.380;4.654;2022-11-11T10:41:29;33.30;;;24.20;;
16906;SDS011;8570;52.380;4.654;2022-11-11T10:46:35;38.33;;;27.38;;
16906;SDS011;8570;52.380;4.654;2022-11-11T10:51:45;32.72;;;24.02;;
16906;SDS011;8570;52.380;4.654;2022-11-11T10:56:53;34.05;;;25.60;;
16906;SDS011;8570;52.380;4.654;2022-11-11T11:01:59;34.35;;;28.23;;
16906;SDS011;8570;52.380;4.654;2022-11-11T11:07:08;29.55;;;24.13;;
16906;SDS011;8570;52.380;4.654;2022-11-11T11:12:14;33.53;;;24.67;;
16906;SDS011;8570;52.380;4.654;2022-11-11T11:17:21;32.08;;;23.63;;
16906;SDS011;8570;52.380;4.654;2022-11-11T11:22:31;29.50;;;21.90;;
16906;SDS011;8570;52.380;4.654;2022-11-11T11:27:46;27.80;;;23.85;;
16906;SDS011;8570;52.380;4.654;2022-11-11T11:32:57;26.42;;;21.45;;
16906;SDS011;8570;52.380;4.654;2022-11-11T11:38:01;28.33;;;22.33;;
16906;SDS011;8570;52.380;4.654;2022-11-11T11:43:09;24.92;;;19.55;;
16906;SDS011;8570;52.380;4.654;2022-11-11T11:48:28;29.13;;;21.38;;
16906;SDS011;8570;52.380;4.654;2022-11-11T11:53:41;27.77;;;22.73;;
16906;SDS011;8570;52.380;4.654;2022-11-11T11:58:54;30.80;;;21.42;;
16906;SDS011;8570;52.380;4.654;2022-11-11T12:09:38;30.70;;;21.05;;
16906;SDS011;8570;52.380;4.654;2022-11-11T12:14:54;30.10;;;21.27;;
16906;SDS011;8570;52.380;4.654;2022-11-11T12:20:09;28.23;;;20.23;;
16906;SDS011;8570;52.380;4.654;2022-11-11T12:25:19;27.35;;;20.95;;
16906;SDS011;8570;52.380;4.654;2022-11-11T12:30:31;26.52;;;19.60;;
16906;SDS011;8570;52.380;4.654;2022-11-11T12:35:40;27.67;;;19.70;;
16906;SDS011;8570;52.380;4.654;2022-11-11T12:40:53;26.17;;;19.90;;
16906;SDS011;8570;52.380;4.654;2022-11-11T12:46:08;25.13;;;19.75;;
16906;SDS011;8570;52.380;4.654;2022-11-11T12:51:18;24.90;;;19.05;;
16906;SDS011;8570;52.380;4.654;2022-11-11T12:56:30;28.17;;;21.05;;
16906;SDS011;8570;52.380;4.654;2022-11-11T13:01:44;30.80;;;20.85;;
16906;SDS011;8570;52.380;4.654;2022-11-11T13:06:56;27.05;;;19.95;;
16906;SDS011;8570;52.380;4.654;2022-11-11T13:12:19;27.90;;;19.83;;
16906;SDS011;8570;52.380;4.654;2022-11-11T13:17:30;30.65;;;20.73;;
16906;SDS011;8570;52.380;4.654;2022-11-11T13:22:33;26.40;;;19.73;;
16906;SDS011;8570;52.380;4.654;2022-11-11T13:27:37;27.42;;;20.17;;
16906;SDS011;8570;52.380;4.654;2022-11-11T13:32:46;26.55;;;20.13;;
16906;SDS011;8570;52.380;4.654;2022-11-11T13:37:50;24.77;;;19.33;;
16906;SDS011;8570;52.380;4.654;2022-11-11T13:42:54;23.50;;;18.73;;
16906;SDS011;8570;52.380;4.654;2022-11-11T13:47:56;27.60;;;17.85;;
16906;SDS011;8570;52.380;4.654;2022-11-11T13:52:59;24.77;;;18.90;;
16906;SDS011;8570;52.380;4.654;2022-11-11T13:58:04;33.25;;;20.58;;
16906;SDS011;8570;52.380;4.654;2022-11-11T14:13:54;26.73;;;20.92;;
16906;SDS011;8570;52.380;4.654;2022-11-11T14:18:57;31.60;;;20.30;;
16906;SDS011;8570;52.380;4.654;2022-11-11T14:23:59;31.13;;;21.80;;
16906;SDS011;8570;52.380;4.654;2022-11-11T14:29:03;28.48;;;20.70;;
16906;SDS011;8570;52.380;4.654;2022-11-11T14:34:18;33.08;;;20.75;;
16906;SDS011;8570;52.380;4.654;2022-11-11T14:39:34;33.40;;;20.25;;
16906;SDS011;8570;52.380;4.654;2022-11-11T14:44:41;27.38;;;20.55;;
16906;SDS011;8570;52.380;4.654;2022-11-11T14:49:44;29.95;;;20.23;;
16906;SDS011;8570;52.380;4.654;2022-11-11T14:54:50;30.80;;;21.27;;
16906;SDS011;8570;52.380;4.654;2022-11-11T14:59:57;27.85;;;19.90;;
16906;SDS011;8570;52.380;4.654;2022-11-11T15:05:00;31.33;;;20.95;;
16906;SDS011;8570;52.380;4.654;2022-11-11T15:10:14;27.00;;;18.98;;
16906;SDS011;8570;52.380;4.654;2022-11-11T15:15:24;28.13;;;19.20;;
16906;SDS011;8570;52.380;4.654;2022-11-11T15:20:41;24.90;;;17.75;;
16906;SDS011;8570;52.380;4.654;2022-11-11T15:25:59;21.10;;;15.07;;
16906;SDS011;8570;52.380;4.654;2022-11-11T15:31:13;20.90;;;15.07;;
16906;SDS011;8570;52.380;4.654;2022-11-11T15:36:25;21.05;;;13.73;;
16906;SDS011;8570;52.380;4.654;2022-11-11T15:41:37;18.45;;;13.63;;
16906;SDS011;8570;52.380;4.654;2022-11-11T15:46:43;21.55;;;14.63;;
16906;SDS011;8570;52.380;4.654;2022-11-11T15:51:46;21.17;;;14.95;;
16906;SDS011;8570;52.380;4.654;2022-11-11T15:56:57;19.75;;;13.93;;
16906;SDS011;8570;52.380;4.654;2022-11-11T16:02:04;20.55;;;13.13;;
16906;SDS011;8570;52.380;4.654;2022-11-11T16:07:15;20.10;;;12.55;;
16906;SDS011;8570;52.380;4.654;2022-11-11T16:12:21;18.13;;;12.13;;
16906;SDS011;8570;52.380;4.654;2022-11-11T16:17:29;16.02;;;11.23;;
16906;SDS011;8570;52.380;4.654;2022-11-11T16:22:37;16.93;;;12.90;;
16906;SDS011;8570;52.380;4.654;2022-11-11T16:27:40;17.63;;;10.73;;
16906;SDS011;8570;52.380;4.654;2022-11-11T16:32:44;16.13;;;10.40;;
16906;SDS011;8570;52.380;4.654;2022-11-11T16:37:49;16.98;;;9.77;;
16906;SDS011;8570;52.380;4.654;2022-11-11T16:48:39;16.27;;;11.60;;
16906;SDS011;8570;52.380;4.654;2022-11-11T16:53:45;15.13;;;9.73;;
16906;SDS011;8570;52.380;4.654;2022-11-11T16:59:01;13.02;;;9.57;;
16906;SDS011;8570;52.380;4.654;2022-11-11T17:04:07;16.15;;;9.27;;
16906;SDS011;8570;52.380;4.654;2022-11-11T17:09:25;19.45;;;10.07;;
16906;SDS011;8570;52.380;4.654;2022-11-11T17:14:30;16.27;;;10.25;;
16906;SDS011;8570;52.380;4.654;2022-11-11T17:19:35;12.27;;;9.27;;
16906;SDS011;8570;52.380;4.654;2022-11-11T17:24:37;15.68;;;9.70;;
16906;SDS011;8570;52.380;4.654;2022-11-11T17:29:39;12.38;;;9.63;;
16906;SDS011;8570;52.380;4.654;2022-11-11T17:34:43;13.88;;;9.32;;
16906;SDS011;8570;52.380;4.654;2022-11-11T17:39:45;17.52;;;12.85;;
16906;SDS011;8570;52.380;4.654;2022-11-11T17:44:47;11.98;;;9.02;;
16906;SDS011;8570;52.380;4.654;2022-11-11T17:49:50;16.75;;;9.13;;
16906;SDS011;8570;52.380;4.654;2022-11-11T17:54:52;16.63;;;10.23;;
16906;SDS011;8570;52.380;4.654;2022-11-11T17:59:54;14.23;;;11.43;;
16906;SDS011;8570;52.380;4.654;2022-11-11T18:04:57;19.42;;;11.40;;
16906;SDS011;8570;52.380;4.654;2022-11-11T18:10:00;15.05;;;10.82;;
16906;SDS011;8570;52.380;4.654;2022-11-11T18:15:02;16.67;;;13.00;;
16906;SDS011;8570;52.380;4.654;2022-11-11T18:20:06;15.73;;;12.27;;
16906;SDS011;8570;52.380;4.654;2022-11-11T18:25:09;16.05;;;12.27;;
16906;SDS011;8570;52.380;4.654;2022-11-11T18:30:11;17.52;;;13.07;;
16906;SDS011;8570;52.380;4.654;2022-11-11T18:35:15;14.87;;;12.50;;
16906;SDS011;8570;52.380;4.654;2022-11-11T18:40:17;15.38;;;11.93;;
16906;SDS011;8570;52.380;4.654;2022-11-11T18:45:19;17.38;;;11.23;;
16906;SDS011;8570;52.380;4.654;2022-11-11T18:50:26;17.23;;;11.60;;
16906;SDS011;8570;52.380;4.654;2022-11-11T18:55:29;16.85;;;12.18;;
16906;SDS011;8570;52.380;4.654;2022-11-11T19:00:31;20.40;;;13.07;;
16906;SDS011;8570;52.380;4.654;2022-11-11T19:05:34;18.23;;;11.93;;
16906;SDS011;8570;52.380;4.654;2022-11-11T19:10:36;19.77;;;12.45;;
16906;SDS011;8570;52.380;4.654;2022-11-11T19:15:40;19.05;;;11.95;;
16906;SDS011;8570;52.380;4.654;2022-11-11T19:20:45;21.53;;;13.40;;
16906;SDS011;8570;52.380;4.654;2022-11-11T19:25:56;19.17;;;12.70;;
16906;SDS011;8570;52.380;4.654;2022-11-11T19:31:01;17.60;;;13.85;;
16906;SDS011;8570;52.380;4.654;2022-11-11T19:36:07;19.30;;;15.03;;
16906;SDS011;8570;52.380;4.654;2022-11-11T19:41:10;19.53;;;12.23;;
16906;SDS011;8570;52.380;4.654;2022-11-11T19:46:13;19.37;;;14.93;;
16906;SDS011;8570;52.380;4.654;2022-11-11T19:51:19;22.20;;;16.83;;
16906;SDS011;8570;52.380;4.654;2022-11-11T19:56:22;26.23;;;17.60;;
16906;SDS011;8570;52.380;4.654;2022-11-11T20:01:28;23.73;;;17.37;;
16906;SDS011;8570;52.380;4.654;2022-11-11T20:06:32;25.57;;;18.13;;
16906;SDS011;8570;52.380;4.654;2022-11-11T20:11:38;63.17;;;35.10;;
16906;SDS011;8570;52.380;4.654;2022-11-11T20:16:41;28.07;;;16.77;;
16906;SDS011;8570;52.380;4.654;2022-11-11T20:21:45;32.80;;;17.57;;
16906;SDS011;8570;52.380;4.654;2022-11-11T20:26:46;20.57;;;13.93;;
16906;SDS011;8570;52.380;4.654;2022-11-11T20:31:49;20.20;;;15.57;;
16906;SDS011;8570;52.380;4.654;2022-11-11T20:36:54;22.23;;;14.50;;
16906;SDS011;8570;52.380;4.654;2022-11-11T20:41:56;22.60;;;14.67;;
16906;SDS011;8570;52.380;4.654;2022-11-11T20:46:58;35.63;;;21.13;;
16906;SDS011;8570;52.380;4.654;2022-11-11T20:52:02;24.87;;;16.53;;
16906;SDS011;8570;52.380;4.654;2022-11-11T20:57:04;25.43;;;15.10;;
16906;SDS011;8570;52.380;4.654;2022-11-11T21:02:07;23.53;;;15.37;;
16906;SDS011;8570;52.380;4.654;2022-11-11T21:07:11;20.80;;;12.60;;
16906;SDS011;8570;52.380;4.654;2022-11-11T21:12:16;22.15;;;15.52;;
16906;SDS011;8570;52.380;4.654;2022-11-11T21:17:18;19.73;;;13.60;;
16906;SDS011;8570;52.380;4.654;2022-11-11T21:22:21;25.37;;;16.23;;
16906;SDS011;8570;52.380;4.654;2022-11-11T21:27:25;26.30;;;18.30;;
16906;SDS011;8570;52.380;4.654;2022-11-11T21:32:26;21.90;;;15.27;;
16906;SDS011;8570;52.380;4.654;2022-11-11T21:37:30;23.77;;;15.10;;
16906;SDS011;8570;52.380;4.654;2022-11-11T21:42:32;21.10;;;13.17;;
16906;SDS011;8570;52.380;4.654;2022-11-11T21:47:33;24.47;;;15.10;;
16906;SDS011;8570;52.380;4.654;2022-11-11T21:52:37;18.37;;;12.23;;
16906;SDS011;8570;52.380;4.654;2022-11-11T21:57:39;18.60;;;12.50;;
16906;SDS011;8570;52.380;4.654;2022-11-11T22:02:41;15.53;;;10.37;;
16906;SDS011;8570;52.380;4.654;2022-11-11T22:07:44;15.23;;;10.47;;
16906;SDS011;8570;52.380;4.654;2022-11-11T22:12:46;17.07;;;11.10;;
16906;SDS011;8570;52.380;4.654;2022-11-11T22:17:51;16.50;;;10.77;;
16906;SDS011;8570;52.380;4.654;2022-11-11T22:22:54;20.67;;;11.73;;
16906;SDS011;8570;52.380;4.654;2022-11-11T22:27:56;19.03;;;11.37;;
16906;SDS011;8570;52.380;4.654;2022-11-11T22:32:58;16.07;;;11.30;;
16906;SDS011;8570;52.380;4.654;2022-11-11T22:38:01;19.83;;;11.57;;
16906;SDS011;8570;52.380;4.654;2022-11-11T22:43:03;21.07;;;11.80;;
16906;SDS011;8570;52.380;4.654;2022-11-11T22:48:05;17.70;;;12.23;;
16906;SDS011;8570;52.380;4.654;2022-11-11T22:53:08;16.80;;;11.67;;
16906;SDS011;8570;52.380;4.654;2022-11-11T22:58:10;19.40;;;12.90;;
16906;SDS011;8570;52.380;4.654;2022-11-11T23:03:12;17.00;;;11.77;;
16906;SDS011;8570;52.380;4.654;2022-11-11T23:08:16;18.90;;;12.47;;
16906;SDS011;8570;52.380;4.654;2022-11-11T23:13:17;17.07;;;11.03;;
16906;SDS011;8570;52.380;4.654;2022-11-11T23:18:19;15.50;;;11.33;;
16906;SDS011;8570;52.380;4.654;2022-11-11T23:23:23;16.20;;;11.20;;
16906;SDS011;8570;52.380;4.654;2022-11-11T23:28:25;17.60;;;11.60;;
16906;SDS011;8570;52.380;4.654;2022-11-11T23:33:29;12.87;;;9.90;;
16906;SDS011;8570;52.380;4.654;2022-11-11T23:38:33;16.90;;;12.13;;
16906;SDS011;8570;52.380;4.654;2022-11-11T23:43:35;19.20;;;13.90;;
16906;SDS011;8570;52.380;4.654;2022-11-11T23:48:37;18.73;;;12.43;;
16906;SDS011;8570;52.380;4.654;2022-11-11T23:53:41;22.57;;;12.13;;
16906;SDS011;8570;52.380;4.654;2022-11-11T23:58:42;16.03;;;12.23;;
